Time;durP1;ratioP1;P1;durP2;ratioP2;P2;SDS_P1;SDS_P2;PMS_P1;PMS_P2;Temp;Humidity;BMP_temperature;BMP_pressure;BME280_temperature;BME280_humidity;BME280_pressure;Samples;Min_cycle;Max_cycle;Signal;HPM_P1;HPM_P2
2022/11/04 00:00:30;;;;;;;14.88;3.10;;;;;;;;;;5061659;28;20053;-83
2022/11/04 00:02:57;;;;;;;6.57;2.58;;;;;;;;;;5035594;28;20120;-82
2022/11/04 00:05:23;;;;;;;7.50;2.45;;;;;;;;;;5062922;28;20046;-84
2022/11/04 00:13:18;;;;;;;13.82;2.25;;;;;;;;;;5064388;28;20681;-82
2022/11/04 00:18:29;;;;;;;13.73;4.70;;;;;;;;;;5062911;28;20087;-82
2022/11/04 00:29:12;;;;;;;8.68;1.65;;;;;;;;;;5063563;28;20044;-82
2022/11/04 00:34:22;;;;;;;7.38;2.15;;;;;;;;;;5065407;28;20041;-80
2022/11/04 00:36:48;;;;;;;6.15;1.60;;;;;;;;;;5060909;28;20069;-82
2022/11/04 00:39:14;;;;;;;9.77;2.10;;;;;;;;;;5062874;28;20041;-82
2022/11/04 00:41:40;;;;;;;10.68;1.45;;;;;;;;;;5061400;28;20531;-84
2022/11/04 00:44:07;;;;;;;5.00;1.60;;;;;;;;;;5039313;28;20048;-82
2022/11/04 00:46:33;;;;;;;6.32;1.55;;;;;;;;;;5061217;28;20045;-81
2022/11/04 00:49:00;;;;;;;7.25;1.65;;;;;;;;;;5060176;28;20037;-81
2022/11/04 00:51:26;;;;;;;4.63;1.45;;;;;;;;;;5060448;28;20076;-81
2022/11/04 00:53:52;;;;;;;6.68;1.80;;;;;;;;;;5061089;28;20029;-82
2022/11/04 00:56:18;;;;;;;8.32;3.33;;;;;;;;;;5061663;28;20135;-80
2022/11/04 00:58:48;;;;;;;5.50;2.85;;;;;;;;;;5059432;28;20103;-83
2022/11/04 01:01:18;;;;;;;5.78;1.67;;;;;;;;;;5057893;28;20084;-82
2022/11/04 01:03:48;;;;;;;4.63;1.50;;;;;;;;;;5039554;28;20087;-79
2022/11/04 01:06:15;;;;;;;12.43;2.47;;;;;;;;;;5056734;28;20052;-80
2022/11/04 01:08:41;;;;;;;6.97;2.20;;;;;;;;;;5040693;28;20041;-80
2022/11/04 01:11:08;;;;;;;7.18;2.05;;;;;;;;;;5056669;28;20657;-80
2022/11/04 01:13:34;;;;;;;8.55;3.42;;;;;;;;;;5058335;28;20041;-81
2022/11/04 01:16:01;;;;;;;5.70;2.63;;;;;;;;;;5057795;28;20044;-83
2022/11/04 01:18:28;;;;;;;6.47;1.25;;;;;;;;;;5057610;28;20083;-83
2022/11/04 01:20:54;;;;;;;6.03;1.70;;;;;;;;;;5032653;28;20045;-81
2022/11/04 01:23:20;;;;;;;11.68;2.10;;;;;;;;;;5033216;28;20108;-81
2022/11/04 01:25:46;;;;;;;10.43;1.92;;;;;;;;;;5039544;28;20060;-81
2022/11/04 01:28:12;;;;;;;5.88;1.73;;;;;;;;;;5057465;28;20155;-82
2022/11/04 01:30:38;;;;;;;7.43;1.92;;;;;;;;;;5057883;28;20052;-82
2022/11/04 01:33:04;;;;;;;3.60;1.98;;;;;;;;;;5033244;28;20136;-83
2022/11/04 01:35:31;;;;;;;8.43;2.58;;;;;;;;;;5039916;28;20049;-81
2022/11/04 01:37:57;;;;;;;8.52;2.20;;;;;;;;;;5033463;28;20041;-81
2022/11/04 01:40:24;;;;;;;13.95;2.58;;;;;;;;;;5058722;28;20097;-82
2022/11/04 01:42:50;;;;;;;4.88;1.70;;;;;;;;;;5058838;28;20131;-81
2022/11/04 01:45:18;;;;;;;9.45;2.58;;;;;;;;;;5057060;28;20056;-82
2022/11/04 01:47:47;;;;;;;4.72;1.50;;;;;;;;;;5033942;28;20052;-81
2022/11/04 01:50:33;;;;;;;6.25;2.28;;;;;;;;;;5059362;28;20045;-81
2022/11/04 01:53:06;;;;;;;7.75;1.88;;;;;;;;;;5058213;28;20049;-82
2022/11/04 01:55:33;;;;;;;5.72;1.48;;;;;;;;;;5058252;28;20048;-81
2022/11/04 01:58:08;;;;;;;11.00;3.08;;;;;;;;;;5060893;28;20128;-82
2022/11/04 02:00:34;;;;;;;8.07;2.75;;;;;;;;;;5059763;28;20037;-82
2022/11/04 02:03:01;;;;;;;9.07;1.70;;;;;;;;;;5035459;28;20957;-82
2022/11/04 02:05:28;;;;;;;6.35;2.42;;;;;;;;;;5042908;28;20132;-83
2022/11/04 02:07:56;;;;;;;10.50;2.30;;;;;;;;;;5061497;28;20049;-82
2022/11/04 02:10:24;;;;;;;7.55;2.15;;;;;;;;;;5062502;28;20056;-82
2022/11/04 02:12:51;;;;;;;4.22;1.92;;;;;;;;;;5059614;28;20081;-81
2022/11/04 02:15:37;;;;;;;11.73;2.17;;;;;;;;;;5035091;28;20588;-81
2022/11/04 02:18:08;;;;;;;6.10;2.10;;;;;;;;;;5014400;28;20057;-83
2022/11/04 02:20:46;;;;;;;4.30;1.35;;;;;;;;;;5059365;28;20052;-82
2022/11/04 02:23:31;;;;;;;3.05;1.85;;;;;;;;;;5058444;28;20079;-81
2022/11/04 02:25:58;;;;;;;1.63;0.77;;;;;;;;;;5057518;28;20044;-82
2022/11/04 02:28:42;;;;;;;9.50;1.92;;;;;;;;;;5058836;28;20102;-82
2022/11/04 02:31:23;;;;;;;3.83;1.88;;;;;;;;;;5058000;28;20049;-83
2022/11/04 02:34:10;;;;;;;5.45;1.95;;;;;;;;;;5057147;28;20131;-81
2022/11/04 02:36:46;;;;;;;4.38;1.67;;;;;;;;;;5039023;28;20087;-81
2022/11/04 02:39:19;;;;;;;11.07;1.48;;;;;;;;;;5032908;28;20570;-81
2022/11/04 02:41:54;;;;;;;8.85;2.97;;;;;;;;;;5056860;28;20090;-82
2022/11/04 02:44:32;;;;;;;8.02;1.70;;;;;;;;;;5055950;28;20049;-82
2022/11/04 02:47:07;;;;;;;7.82;1.90;;;;;;;;;;5056574;28;20048;-81
2022/11/04 02:49:38;;;;;;;7.72;1.60;;;;;;;;;;5055161;28;20052;-81
2022/11/04 02:52:12;;;;;;;4.03;1.38;;;;;;;;;;5037946;28;21310;-80
2022/11/04 02:54:38;;;;;;;5.53;1.60;;;;;;;;;;5038078;28;20037;-80
2022/11/04 02:57:06;;;;;;;6.07;1.98;;;;;;;;;;5055049;28;20064;-80
2022/11/04 02:59:41;;;;;;;3.83;1.33;;;;;;;;;;5036765;28;20053;-80
2022/11/04 03:02:10;;;;;;;6.90;2.03;;;;;;;;;;5056527;28;20049;-81
2022/11/04 03:04:38;;;;;;;5.50;1.30;;;;;;;;;;5030284;28;20046;-81
2022/11/04 03:07:06;;;;;;;5.07;1.27;;;;;;;;;;5032763;28;20091;-79
2022/11/04 03:09:34;;;;;;;3.28;1.42;;;;;;;;;;5056557;28;20045;-81
2022/11/04 03:12:04;;;;;;;6.63;1.45;;;;;;;;;;5059249;28;20037;-81
2022/11/04 03:14:51;;;;;;;10.18;3.05;;;;;;;;;;5059939;28;20041;-81
2022/11/04 03:17:20;;;;;;;6.00;1.48;;;;;;;;;;5041559;28;20045;-82
2022/11/04 03:19:53;;;;;;;9.55;3.20;;;;;;;;;;5058647;28;21060;-82
2022/11/04 03:22:21;;;;;;;3.75;1.30;;;;;;;;;;5040994;28;20080;-82
2022/11/04 03:24:47;;;;;;;4.72;1.50;;;;;;;;;;5058716;28;20045;-83
2022/11/04 03:27:19;;;;;;;9.35;1.40;;;;;;;;;;5041860;28;20495;-82
2022/11/04 03:29:45;;;;;;;10.57;1.35;;;;;;;;;;5060843;28;20559;-82
2022/11/04 03:32:24;;;;;;;7.15;1.45;;;;;;;;;;5058847;28;20049;-80
2022/11/04 03:34:51;;;;;;;3.65;1.20;;;;;;;;;;5060519;28;20041;-81
2022/11/04 03:37:17;;;;;;;11.35;1.25;;;;;;;;;;5059526;28;20041;-83
2022/11/04 03:39:43;;;;;;;5.60;1.27;;;;;;;;;;5058339;28;20120;-83
2022/11/04 03:42:20;;;;;;;6.35;1.80;;;;;;;;;;5059095;28;20053;-82
2022/11/04 03:44:50;;;;;;;3.85;1.40;;;;;;;;;;5058758;28;20182;-82
2022/11/04 03:47:17;;;;;;;15.15;1.98;;;;;;;;;;5033507;28;20538;-81
2022/11/04 03:49:45;;;;;;;15.65;4.05;;;;;;;;;;5041091;28;20577;-82
2022/11/04 03:52:11;;;;;;;5.57;2.00;;;;;;;;;;5058777;28;20546;-82
2022/11/04 03:54:37;;;;;;;4.00;1.30;;;;;;;;;;5059261;28;20158;-80
2022/11/04 03:57:16;;;;;;;6.30;2.63;;;;;;;;;;5059649;28;20118;-81
2022/11/04 03:59:48;;;;;;;4.95;1.63;;;;;;;;;;5034709;28;20041;-81
2022/11/04 04:02:14;;;;;;;;;;;;;;;;;;5058904;28;20064;-82
2022/11/04 04:04:45;;;;;;;3.03;1.55;;;;;;;;;;5057987;28;20008;-81
2022/11/04 04:07:14;;;;;;;5.43;1.33;;;;;;;;;;5039799;28;20073;-81
2022/11/04 04:09:40;;;;;;;2.53;1.60;;;;;;;;;;5039009;28;20040;-81
2022/11/04 04:12:13;;;;;;;3.13;1.25;;;;;;;;;;5056692;28;20143;-82
2022/11/04 04:14:44;;;;;;;9.75;2.17;;;;;;;;;;5040661;28;20056;-81
2022/11/04 04:17:14;;;;;;;5.38;1.92;;;;;;;;;;5034744;28;20045;-80
2022/11/04 04:19:43;;;;;;;11.38;2.17;;;;;;;;;;5057570;28;20052;-80
2022/11/04 04:22:12;;;;;;;4.90;1.38;;;;;;;;;;5056440;28;20144;-81
2022/11/04 04:27:32;;;;;;;8.50;1.83;;;;;;;;;;5058306;28;20569;-80
2022/11/04 04:30:00;;;;;;;4.15;2.20;;;;;;;;;;5058166;28;20156;-80
2022/11/04 04:32:27;;;;;;;6.40;1.63;;;;;;;;;;5030598;28;20041;-81
2022/11/04 04:37:40;;;;;;;3.78;1.17;;;;;;;;;;5057885;28;20048;-82
2022/11/04 04:45:40;;;;;;;4.93;1.85;;;;;;;;;;5057960;28;20049;-82
2022/11/04 04:48:08;;;;;;;6.47;2.60;;;;;;;;;;5059422;28;20121;-81
2022/11/04 04:50:36;;;;;;;13.27;2.10;;;;;;;;;;5056966;28;20483;-82
2022/11/04 04:53:03;;;;;;;5.45;2.20;;;;;;;;;;5058430;28;20041;-82
2022/11/04 04:55:30;;;;;;;11.45;1.70;;;;;;;;;;5056886;28;20081;-82
2022/11/04 04:57:56;;;;;;;8.70;2.00;;;;;;;;;;5057716;28;20124;-82
2022/11/04 05:00:23;;;;;;;10.50;1.90;;;;;;;;;;5038145;28;20056;-81
2022/11/04 05:02:49;;;;;;;3.55;1.42;;;;;;;;;;5057393;28;20436;-81
2022/11/04 05:05:15;;;;;;;5.18;1.77;;;;;;;;;;5054625;28;20091;-81
2022/11/04 05:07:41;;;;;;;3.72;2.10;;;;;;;;;;5056789;28;21542;-82
2022/11/04 05:10:09;;;;;;;3.60;1.42;;;;;;;;;;5033238;28;20567;-82
2022/11/04 05:15:20;;;;;;;7.43;1.75;;;;;;;;;;5059373;28;20049;-82
2022/11/04 05:17:46;;;;;;;8.15;2.53;;;;;;;;;;5056591;28;20045;-82
2022/11/04 05:20:12;;;;;;;5.85;2.00;;;;;;;;;;5055867;28;20148;-82
2022/11/04 05:22:39;;;;;;;5.13;1.38;;;;;;;;;;5055052;28;20087;-82
2022/11/04 05:25:05;;;;;;;4.70;2.38;;;;;;;;;;5057228;28;20060;-82
2022/11/04 05:27:31;;;;;;;7.13;1.50;;;;;;;;;;5056367;28;20041;-82
2022/11/04 05:29:57;;;;;;;2.17;0.85;;;;;;;;;;5055819;28;20048;-82
2022/11/04 05:32:23;;;;;;;3.70;1.17;;;;;;;;;;5033472;28;20048;-82
2022/11/04 05:34:49;;;;;;;8.48;2.45;;;;;;;;;;5032188;28;20426;-82
2022/11/04 05:37:15;;;;;;;6.10;1.77;;;;;;;;;;5056985;28;20049;-81
2022/11/04 05:39:41;;;;;;;4.63;1.30;;;;;;;;;;5057571;28;20063;-82
2022/11/04 05:42:07;;;;;;;8.50;1.77;;;;;;;;;;5056563;28;20049;-82
2022/11/04 05:44:34;;;;;;;3.50;1.25;;;;;;;;;;5056526;28;20123;-81
2022/11/04 05:47:00;;;;;;;5.53;0.93;;;;;;;;;;5059208;28;20047;-82
2022/11/04 05:49:26;;;;;;;4.70;1.83;;;;;;;;;;5055468;28;20037;-81
2022/11/04 05:51:52;;;;;;;5.03;1.42;;;;;;;;;;5057357;28;20041;-82
2022/11/04 05:54:18;;;;;;;4.15;1.77;;;;;;;;;;5056910;28;20056;-81
2022/11/04 05:56:44;;;;;;;6.22;1.58;;;;;;;;;;5039749;28;20040;-81
2022/11/04 05:59:10;;;;;;;11.02;2.15;;;;;;;;;;5057333;28;20051;-81
2022/11/04 06:01:37;;;;;;;3.70;1.35;;;;;;;;;;5032431;28;20141;-80
2022/11/04 06:04:14;;;;;;;10.70;3.25;;;;;;;;;;5056974;28;20553;-81
2022/11/04 06:06:41;;;;;;;5.75;1.85;;;;;;;;;;5057748;28;20079;-80
2022/11/04 06:09:07;;;;;;;9.40;1.80;;;;;;;;;;5056354;28;20093;-83
2022/11/04 06:11:33;;;;;;;5.72;1.48;;;;;;;;;;5057530;28;20045;-82
2022/11/04 06:14:00;;;;;;;4.55;1.98;;;;;;;;;;5030303;28;20033;-83
2022/11/04 06:16:26;;;;;;;8.15;1.42;;;;;;;;;;5058839;28;20053;-83
2022/11/04 06:18:52;;;;;;;5.47;1.45;;;;;;;;;;5058465;28;20033;-82
2022/11/04 06:21:21;;;;;;;3.83;1.70;;;;;;;;;;5060619;28;20045;-83
2022/11/04 06:23:47;;;;;;;5.53;1.50;;;;;;;;;;5041343;28;20058;-82
2022/11/04 06:26:14;;;;;;;5.38;1.42;;;;;;;;;;5059705;28;20052;-82
2022/11/04 06:28:40;;;;;;;9.55;2.38;;;;;;;;;;5059614;28;20052;-83
2022/11/04 06:31:08;;;;;;;1.88;1.20;;;;;;;;;;5033688;28;20111;-82
2022/11/04 06:33:34;;;;;;;2.90;1.58;;;;;;;;;;5058304;28;20045;-82
2022/11/04 06:36:01;;;;;;;5.75;1.80;;;;;;;;;;5060402;28;20080;-83
2022/11/04 06:38:32;;;;;;;6.63;1.55;;;;;;;;;;5043562;28;20040;-85
2022/11/04 06:41:03;;;;;;;3.03;1.27;;;;;;;;;;5062206;28;20124;-85
2022/11/04 06:43:30;;;;;;;7.07;1.80;;;;;;;;;;5060492;28;20025;-83
2022/11/04 06:45:56;;;;;;;6.47;1.98;;;;;;;;;;5055930;28;20051;-85
2022/11/04 06:48:29;;;;;;;4.50;1.75;;;;;;;;;;5063560;28;20037;-85
2022/11/04 06:50:57;;;;;;;5.43;2.08;;;;;;;;;;5063004;28;20147;-82
2022/11/04 06:53:28;;;;;;;8.27;1.60;;;;;;;;;;5063775;28;20045;-84
2022/11/04 06:56:01;;;;;;;8.15;3.72;;;;;;;;;;5062118;28;20124;-84
2022/11/04 06:58:27;;;;;;;5.88;1.50;;;;;;;;;;5063629;28;20131;-84
2022/11/04 07:00:53;;;;;;;7.18;1.63;;;;;;;;;;5062675;28;20493;-83
2022/11/04 07:03:20;;;;;;;5.45;2.40;;;;;;;;;;5063272;28;20505;-83
2022/11/04 07:05:46;;;;;;;3.60;1.60;;;;;;;;;;5062110;28;20554;-83
2022/11/04 07:08:15;;;;;;;6.38;1.60;;;;;;;;;;5037708;28;20045;-83
2022/11/04 07:10:41;;;;;;;6.50;2.33;;;;;;;;;;5061818;28;20160;-83
2022/11/04 07:13:07;;;;;;;5.78;1.40;;;;;;;;;;5060848;28;20052;-83
2022/11/04 07:15:33;;;;;;;5.97;1.80;;;;;;;;;;5060996;28;20045;-82
2022/11/04 07:17:59;;;;;;;5.97;1.70;;;;;;;;;;5062509;28;20535;-82
2022/11/04 07:20:25;;;;;;;4.22;1.60;;;;;;;;;;5060106;28;20041;-82
2022/11/04 07:22:53;;;;;;;5.57;1.58;;;;;;;;;;5058609;28;20124;-82
2022/11/04 07:25:19;;;;;;;6.30;1.60;;;;;;;;;;5041578;28;20053;-81
2022/11/04 07:27:45;;;;;;;8.27;2.00;;;;;;;;;;5059869;28;20052;-80
2022/11/04 07:30:12;;;;;;;5.03;1.65;;;;;;;;;;5043309;28;20037;-81
2022/11/04 07:32:38;;;;;;;10.50;3.80;;;;;;;;;;5036372;28;20045;-81
2022/11/04 07:35:04;;;;;;;2.55;1.50;;;;;;;;;;5040096;28;20121;-81
2022/11/04 07:37:31;;;;;;;5.25;2.10;;;;;;;;;;5059232;28;20052;-82
2022/11/04 07:39:57;;;;;;;3.30;1.30;;;;;;;;;;5060441;28;20047;-84
2022/11/04 07:42:26;;;;;;;9.95;2.92;;;;;;;;;;5053235;28;20044;-83
2022/11/04 07:44:54;;;;;;;3.85;1.33;;;;;;;;;;5037718;28;20635;-82
2022/11/04 07:47:21;;;;;;;5.72;1.48;;;;;;;;;;5043836;28;20049;-82
2022/11/04 07:49:48;;;;;;;6.22;1.33;;;;;;;;;;5061294;28;20893;-81
2022/11/04 07:52:14;;;;;;;6.68;2.45;;;;;;;;;;5043735;28;20061;-83
2022/11/04 07:54:40;;;;;;;4.13;1.20;;;;;;;;;;5043681;28;20051;-82
2022/11/04 07:57:07;;;;;;;4.28;2.30;;;;;;;;;;5063667;28;20044;-81
2022/11/04 07:59:37;;;;;;;4.57;1.73;;;;;;;;;;5064240;28;20037;-82
2022/11/04 08:02:03;;;;;;;2.53;1.67;;;;;;;;;;5062635;28;21112;-82
2022/11/04 08:04:31;;;;;;;4.32;1.92;;;;;;;;;;5063192;28;20060;-82
2022/11/04 08:06:57;;;;;;;6.32;2.72;;;;;;;;;;5062709;28;20094;-81
2022/11/04 08:09:35;;;;;;;6.13;2.38;;;;;;;;;;5062829;28;20498;-83
2022/11/04 08:12:07;;;;;;;8.27;2.70;;;;;;;;;;5062387;28;20040;-81
2022/11/04 08:14:40;;;;;;;3.17;1.48;;;;;;;;;;5061798;28;20132;-81
2022/11/04 08:17:06;;;;;;;;;;;;;;;;;;5063665;28;20041;-82
2022/11/04 08:19:34;;;;;;;10.73;2.38;;;;;;;;;;5039185;28;20405;-82
2022/11/04 08:22:02;;;;;;;5.53;1.83;;;;;;;;;;5038681;28;20045;-82
2022/11/04 08:24:28;;;;;;;7.22;2.08;;;;;;;;;;5065971;28;20041;-83
2022/11/04 08:27:02;;;;;;;9.77;3.33;;;;;;;;;;5048149;28;20052;-83
2022/11/04 08:29:28;;;;;;;10.18;4.65;;;;;;;;;;5064622;28;20041;-81
2022/11/04 08:31:54;;;;;;;11.65;4.13;;;;;;;;;;5062786;28;20136;-79
2022/11/04 08:34:20;;;;;;;17.98;6.85;;;;;;;;;;5040028;28;20107;-80
2022/11/04 08:36:47;;;;;;;19.58;7.22;;;;;;;;;;5063798;28;20045;-80
2022/11/04 08:39:13;;;;;;;14.90;5.47;;;;;;;;;;5064534;28;20095;-80
2022/11/04 08:41:41;;;;;;;9.70;4.82;;;;;;;;;;5064130;28;20161;-80
2022/11/04 08:44:08;;;;;;;6.75;2.67;;;;;;;;;;5061917;28;20091;-79
2022/11/04 08:46:36;;;;;;;8.07;3.60;;;;;;;;;;5055804;28;20124;-80
2022/11/04 08:49:03;;;;;;;4.85;2.15;;;;;;;;;;5074464;28;20041;-79
2022/11/04 08:51:30;;;;;;;5.40;2.47;;;;;;;;;;5071938;28;20925;-80
2022/11/04 08:53:56;;;;;;;6.63;3.63;;;;;;;;;;5054004;28;20047;-80
2022/11/04 08:56:23;;;;;;;8.77;3.72;;;;;;;;;;5071042;28;20041;-80
2022/11/04 08:58:50;;;;;;;10.43;3.83;;;;;;;;;;5068538;28;20037;-80
2022/11/04 09:01:16;;;;;;;8.95;3.13;;;;;;;;;;5045859;28;20072;-81
2022/11/04 09:03:42;;;;;;;6.82;2.75;;;;;;;;;;5051004;28;20044;-82
2022/11/04 09:06:10;;;;;;;11.38;2.28;;;;;;;;;;5067465;28;20051;-81
2022/11/04 09:08:38;;;;;;;6.03;1.95;;;;;;;;;;5048150;28;20037;-81
2022/11/04 09:11:10;;;;;;;12.00;4.03;;;;;;;;;;5067024;28;20049;-81
2022/11/04 09:13:37;;;;;;;9.38;3.33;;;;;;;;;;5066961;28;20047;-80
2022/11/04 09:16:03;;;;;;;4.35;1.55;;;;;;;;;;5063889;28;20044;-80
2022/11/04 09:18:29;;;;;;;4.57;1.42;;;;;;;;;;5039273;28;20037;-80
2022/11/04 09:20:59;;;;;;;3.40;1.10;;;;;;;;;;5036414;28;20127;-80
2022/11/04 09:23:25;;;;;;;6.40;1.52;;;;;;;;;;5046291;28;20049;-80
2022/11/04 09:25:51;;;;;;;2.25;0.82;;;;;;;;;;5038664;28;20120;-81
2022/11/04 09:28:17;;;;;;;4.25;1.38;;;;;;;;;;5038360;28;20136;-80
2022/11/04 09:30:43;;;;;;;1.58;0.90;;;;;;;;;;5062381;28;20093;-81
2022/11/04 09:33:09;;;;;;;2.47;0.90;;;;;;;;;;5063630;28;20671;-80
2022/11/04 09:35:36;;;;;;;1.33;0.75;;;;;;;;;;5036573;28;20047;-81
2022/11/04 09:38:02;;;;;;;2.88;0.85;;;;;;;;;;5062384;28;20572;-81
2022/11/04 09:40:36;;;;;;;3.80;1.52;;;;;;;;;;5058676;28;20083;-81
2022/11/04 09:43:02;;;;;;;2.00;1.00;;;;;;;;;;5060717;28;20100;-80
2022/11/04 09:45:31;;;;;;;2.45;2.25;;;;;;;;;;5052842;28;20523;-81
2022/11/04 09:48:02;;;;;;;6.15;0.95;;;;;;;;;;5060085;28;20041;-79
2022/11/04 09:50:31;;;;;;;5.57;1.35;;;;;;;;;;5041952;28;20044;-80
2022/11/04 09:53:13;;;;;;;1.40;0.80;;;;;;;;;;5042305;28;20094;-80
2022/11/04 09:55:41;;;;;;;0.85;0.40;;;;;;;;;;5032766;28;20045;-79
2022/11/04 09:58:10;;;;;;;4.65;1.05;;;;;;;;;;5058992;28;20048;-77
2022/11/04 10:00:38;;;;;;;2.95;0.90;;;;;;;;;;5039374;28;20049;-78
2022/11/04 10:03:13;;;;;;;3.95;0.75;;;;;;;;;;5057868;28;20135;-78
2022/11/04 10:05:45;;;;;;;3.95;1.02;;;;;;;;;;5057746;28;20037;-78
2022/11/04 10:08:11;;;;;;;;;;;;;;;;;;5041093;28;20081;-77
2022/11/04 10:10:52;;;;;;;1.42;0.80;;;;;;;;;;5056699;28;19931;-76
2022/11/04 10:13:30;;;;;;;2.90;0.82;;;;;;;;;;5055626;28;20052;-77
2022/11/04 10:16:04;;;;;;;2.70;0.90;;;;;;;;;;5055797;28;20041;-77
2022/11/04 10:18:49;;;;;;;8.75;1.13;;;;;;;;;;5055569;28;20049;-77
2022/11/04 10:21:34;;;;;;;1.45;0.80;;;;;;;;;;5038264;28;20073;-76
2022/11/04 10:24:12;;;;;;;1.45;0.80;;;;;;;;;;5037700;28;20165;-77
2022/11/04 10:26:41;;;;;;;1.45;0.90;;;;;;;;;;5054968;28;20559;-76
2022/11/04 10:29:15;;;;;;;1.27;0.65;;;;;;;;;;5056828;28;20542;-78
2022/11/04 10:31:42;;;;;;;1.58;0.38;;;;;;;;;;5056940;28;20049;-76
2022/11/04 10:34:11;;;;;;;4.10;1.15;;;;;;;;;;5057576;28;20045;-76
2022/11/04 10:36:38;;;;;;;5.75;2.65;;;;;;;;;;5033915;28;20069;-77
2022/11/04 10:39:07;;;;;;;1.58;1.35;;;;;;;;;;5040439;28;20128;-78
2022/11/04 10:41:34;;;;;;;1.55;0.80;;;;;;;;;;5059122;28;20054;-77
2022/11/04 10:44:05;;;;;;;3.38;0.90;;;;;;;;;;5057501;28;21072;-77
2022/11/04 10:46:38;;;;;;;3.13;2.73;;;;;;;;;;5057827;28;20107;-78
2022/11/04 10:49:12;;;;;;;1.10;0.65;;;;;;;;;;5056873;28;20276;-76
2022/11/04 10:51:38;;;;;;;1.60;0.98;;;;;;;;;;5056478;28;20037;-76
2022/11/04 10:54:05;;;;;;;12.93;1.70;;;;;;;;;;5037204;28;20522;-76
2022/11/04 10:56:39;;;;;;;3.42;1.15;;;;;;;;;;5054318;28;20068;-76
2022/11/04 10:59:17;;;;;;;4.40;1.65;;;;;;;;;;5055778;28;20040;-76
2022/11/04 11:01:54;;;;;;;8.07;1.88;;;;;;;;;;5050335;28;20537;-75
2022/11/04 11:04:34;;;;;;;2.05;0.90;;;;;;;;;;5034849;28;20073;-77
2022/11/04 11:07:01;;;;;;;3.28;1.30;;;;;;;;;;5027076;28;20041;-76
2022/11/04 11:09:28;;;;;;;4.18;1.35;;;;;;;;;;5030412;28;20041;-77
2022/11/04 11:11:56;;;;;;;4.07;1.50;;;;;;;;;;5034468;28;20044;-75
2022/11/04 11:14:31;;;;;;;3.17;1.13;;;;;;;;;;5035644;28;20048;-76
2022/11/04 11:17:18;;;;;;;1.98;1.20;;;;;;;;;;5036892;28;20033;-75
2022/11/04 11:20:07;;;;;;;2.13;0.98;;;;;;;;;;5025317;28;20046;-77
2022/11/04 11:22:42;;;;;;;6.03;1.58;;;;;;;;;;5024967;28;20053;-75
2022/11/04 11:25:26;;;;;;;2.25;1.42;;;;;;;;;;5030677;28;20037;-75
2022/11/04 11:28:21;;;;;;;4.22;3.08;;;;;;;;;;5025728;28;20045;-76
2022/11/04 11:30:47;;;;;;;3.28;1.80;;;;;;;;;;5015994;28;20119;-76
2022/11/04 11:33:18;;;;;;;2.90;1.20;;;;;;;;;;5036695;28;20095;-76
2022/11/04 11:35:51;;;;;;;3.17;1.67;;;;;;;;;;5036681;28;20045;-76
2022/11/04 11:38:22;;;;;;;6.25;1.75;;;;;;;;;;5039636;28;20062;-77
2022/11/04 11:40:51;;;;;;;1.80;1.13;;;;;;;;;;5038540;28;20060;-76
2022/11/04 11:43:23;;;;;;;1.95;1.85;;;;;;;;;;5037982;28;20037;-76
2022/11/04 11:45:49;;;;;;;1.08;0.85;;;;;;;;;;5038047;28;20063;-77
2022/11/04 11:48:47;;;;;;;3.25;1.33;;;;;;;;;;5037296;28;20112;-78
2022/11/04 11:51:14;;;;;;;3.22;0.88;;;;;;;;;;4993236;28;20127;-76
2022/11/04 11:53:57;;;;;;;3.05;0.75;;;;;;;;;;5037852;28;20041;-77
2022/11/04 11:56:25;;;;;;;5.50;1.65;;;;;;;;;;5038559;28;20045;-75
2022/11/04 11:58:58;;;;;;;1.92;1.25;;;;;;;;;;5039024;28;20049;-77
2022/11/04 12:01:34;;;;;;;0.52;0.50;;;;;;;;;;5042598;28;20041;-79
2022/11/04 12:04:00;;;;;;;0.98;0.50;;;;;;;;;;5058477;28;20045;-78
2022/11/04 12:06:55;;;;;;;1.33;0.77;;;;;;;;;;5058450;28;20075;-76
2022/11/04 12:09:27;;;;;;;2.30;0.60;;;;;;;;;;5044254;28;20057;-76
2022/11/04 12:11:53;;;;;;;;;;;;;;;;;;5058884;28;20045;-80
2022/11/04 12:14:39;;;;;;;1.42;0.73;;;;;;;;;;5034996;28;20405;-77
2022/11/04 12:17:17;;;;;;;3.63;1.02;;;;;;;;;;5040201;28;20037;-76
2022/11/04 12:19:46;;;;;;;1.85;1.50;;;;;;;;;;5039949;28;20418;-77
2022/11/04 12:22:27;;;;;;;1.20;0.80;;;;;;;;;;5058774;28;20132;-77
2022/11/04 12:24:56;;;;;;;1.90;0.90;;;;;;;;;;5040466;28;20816;-77
2022/11/04 12:27:28;;;;;;;1.90;1.05;;;;;;;;;;5058572;28;20041;-76
2022/11/04 12:30:03;;;;;;;2.65;1.02;;;;;;;;;;5041291;28;20033;-78
2022/11/04 12:32:46;;;;;;;5.68;1.50;;;;;;;;;;5058151;28;20053;-76
2022/11/04 12:35:16;;;;;;;1.48;0.70;;;;;;;;;;5039989;28;20531;-78
2022/11/04 12:37:51;;;;;;;7.57;2.22;;;;;;;;;;5056795;28;20045;-77
2022/11/04 12:40:35;;;;;;;5.25;1.27;;;;;;;;;;5040901;28;20140;-78
2022/11/04 12:43:11;;;;;;;1.70;0.82;;;;;;;;;;5040737;28;20047;-76
2022/11/04 12:46:03;;;;;;;3.20;0.77;;;;;;;;;;5058154;28;20519;-78
2022/11/04 12:48:29;;;;;;;;;;;;;;;;;;5060226;28;20045;-79
2022/11/04 12:50:55;;;;;;;1.45;1.38;;;;;;;;;;5043523;28;19921;-79
2022/11/04 12:53:42;;;;;;;1.00;0.73;;;;;;;;;;5059973;28;20041;-78
2022/11/04 12:56:17;;;;;;;6.93;3.47;;;;;;;;;;5059120;28;20041;-79
2022/11/04 12:58:59;;;;;;;2.22;1.13;;;;;;;;;;5060321;28;20045;-80
2022/11/04 13:01:32;;;;;;;4.28;2.55;;;;;;;;;;5060124;28;20565;-80
2022/11/04 13:04:09;;;;;;;3.88;1.92;;;;;;;;;;5042343;28;20071;-81
2022/11/04 13:06:44;;;;;;;3.20;1.63;;;;;;;;;;5041559;28;20064;-81
2022/11/04 13:09:16;;;;;;;3.60;1.70;;;;;;;;;;5061242;28;20044;-80
2022/11/04 13:11:49;;;;;;;3.08;1.55;;;;;;;;;;5034896;28;20033;-81
2022/11/04 13:14:19;;;;;;;4.53;2.50;;;;;;;;;;5060982;28;20538;-81
2022/11/04 13:16:47;;;;;;;1.55;1.17;;;;;;;;;;5042472;28;20041;-80
2022/11/04 13:19:43;;;;;;;2.97;1.50;;;;;;;;;;5058062;28;20037;-79
2022/11/04 13:22:14;;;;;;;4.05;1.30;;;;;;;;;;5035967;28;20093;-79
2022/11/04 13:24:47;;;;;;;4.93;2.17;;;;;;;;;;5058212;28;20040;-81
2022/11/04 13:27:33;;;;;;;2.80;1.40;;;;;;;;;;5040620;28;20287;-78
2022/11/04 13:30:05;;;;;;;1.20;0.82;;;;;;;;;;5057210;28;20071;-78
2022/11/04 13:32:35;;;;;;;1.30;1.00;;;;;;;;;;5039220;28;20033;-78
2022/11/04 13:35:07;;;;;;;3.50;1.30;;;;;;;;;;5055036;28;20052;-77
2022/11/04 13:37:43;;;;;;;3.95;1.88;;;;;;;;;;5053901;28;20044;-77
2022/11/04 13:40:22;;;;;;;2.85;1.90;;;;;;;;;;5035194;28;20041;-77
2022/11/04 13:45:51;;;;;;;1.33;0.82;;;;;;;;;;5055408;28;20881;-78
2022/11/04 13:48:23;;;;;;;1.88;0.73;;;;;;;;;;5056614;28;20056;-78
2022/11/04 13:51:09;;;;;;;1.52;0.82;;;;;;;;;;5053122;28;20044;-78
2022/11/04 13:53:43;;;;;;;2.30;0.90;;;;;;;;;;5055049;28;20625;-80
2022/11/04 13:56:10;;;;;;;2.85;1.42;;;;;;;;;;5054126;28;20084;-77
2022/11/04 13:58:38;;;;;;;1.98;1.70;;;;;;;;;;5054090;28;20578;-78
2022/11/04 14:01:26;;;;;;;1.30;0.88;;;;;;;;;;5051937;28;20041;-79
2022/11/04 14:04:10;;;;;;;1.90;0.60;;;;;;;;;;5050431;28;20135;-79
2022/11/04 14:06:48;;;;;;;5.43;1.00;;;;;;;;;;5051986;28;20036;-78
2022/11/04 14:09:31;;;;;;;11.07;2.15;;;;;;;;;;5035092;28;20129;-79
2022/11/04 14:12:10;;;;;;;2.83;1.00;;;;;;;;;;5033111;28;20037;-78
2022/11/04 14:14:55;;;;;;;6.25;0.90;;;;;;;;;;5053134;28;20052;-78
2022/11/04 14:17:33;;;;;;;3.10;2.13;;;;;;;;;;5052385;28;20041;-79
2022/11/04 14:19:59;;;;;;;1.27;0.63;;;;;;;;;;5053386;28;20067;-77
2022/11/04 14:22:46;;;;;;;2.78;0.82;;;;;;;;;;5035999;28;20123;-77
2022/11/04 14:25:21;;;;;;;3.60;1.17;;;;;;;;;;5033501;28;20037;-78
2022/11/04 14:27:52;;;;;;;1.63;1.38;;;;;;;;;;5051897;28;20033;-78
2022/11/04 14:30:27;;;;;;;3.78;1.00;;;;;;;;;;5054645;28;20060;-77
2022/11/04 14:32:56;;;;;;;1.58;0.73;;;;;;;;;;5052480;28;20037;-78
2022/11/04 14:35:23;;;;;;;3.00;1.30;;;;;;;;;;5050726;28;20041;-79
2022/11/04 14:37:51;;;;;;;2.55;0.93;;;;;;;;;;5053765;28;20087;-78
2022/11/04 14:40:28;;;;;;;1.73;1.00;;;;;;;;;;5050052;28;20134;-79
2022/11/04 14:42:55;;;;;;;4.18;1.60;;;;;;;;;;5054563;28;20093;-78
2022/11/04 14:45:23;;;;;;;15.88;5.95;;;;;;;;;;5053944;28;20669;-78
2022/11/04 14:47:51;;;;;;;6.40;1.95;;;;;;;;;;5054886;28;20040;-78
2022/11/04 14:50:19;;;;;;;9.98;5.28;;;;;;;;;;5034827;28;20111;-78
2022/11/04 14:52:53;;;;;;;4.90;2.35;;;;;;;;;;5050893;28;20053;-78
2022/11/04 14:55:25;;;;;;;8.00;4.20;;;;;;;;;;5054407;28;20130;-77
2022/11/04 14:57:55;;;;;;;7.07;2.38;;;;;;;;;;5053995;28;20048;-78
2022/11/04 15:00:24;;;;;;;5.20;3.42;;;;;;;;;;5051937;28;20216;-78
2022/11/04 15:03:19;;;;;;;8.68;3.25;;;;;;;;;;5053404;28;20432;-77
2022/11/04 15:05:50;;;;;;;7.55;2.47;;;;;;;;;;5031787;28;20095;-77
2022/11/04 15:08:26;;;;;;;5.22;1.50;;;;;;;;;;5036971;28;20645;-78
2022/11/04 15:10:56;;;;;;;6.47;1.88;;;;;;;;;;5055143;28;20099;-79
2022/11/04 15:13:23;;;;;;;10.95;2.13;;;;;;;;;;5031855;28;20040;-77
2022/11/04 15:15:49;;;;;;;4.13;1.45;;;;;;;;;;5055960;28;20051;-77
2022/11/04 15:18:20;;;;;;;5.18;1.90;;;;;;;;;;5054487;28;20051;-77
2022/11/04 15:20:48;;;;;;;6.60;1.33;;;;;;;;;;5030367;28;20110;-77
2022/11/04 15:23:16;;;;;;;7.47;2.30;;;;;;;;;;5030945;28;20049;-77
2022/11/04 15:25:46;;;;;;;26.50;10.00;;;;;;;;;;5055590;28;20056;-77
2022/11/04 15:28:16;;;;;;;18.17;6.43;;;;;;;;;;5054702;28;20073;-78
2022/11/04 15:30:42;;;;;;;12.82;3.88;;;;;;;;;;5031362;28;20522;-76
2022/11/04 15:33:15;;;;;;;8.18;2.95;;;;;;;;;;5031972;28;20099;-77
2022/11/04 15:35:42;;;;;;;11.88;4.40;;;;;;;;;;5056082;28;20084;-76
2022/11/04 15:38:10;;;;;;;9.90;2.67;;;;;;;;;;5030184;28;20623;-77